This is the latest recevied weather packets stored in our database for station/object AA8FM-13. If no packets are shown the sender has not sent any weather packets the latest 10 day(s).
| Time | Temp. | Humidity | Pressure | Rain* | Wind** | Luminosity | Snow |
|---|---|---|---|---|---|---|---|
| 1778070225 | 13.33° C | 99% | 1004.8 hPa | 0 mm | - | 24 W/m² | - |
| 1778069924 | 13.33° C | 99% | 1004.7 hPa | 0 mm | - | 23 W/m² | - |
| 1778069620 | 13.33° C | 99% | 1004.7 hPa | 0 mm | - | 18 W/m² | - |
| 1778069317 | 13.33° C | 99% | 1004.8 hPa | 0 mm | - | 16 W/m² | - |
| 1778069015 | 13.33° C | 99% | 1004.9 hPa | 1.27 mm | - | 11 W/m² | - |
| 1778068712 | 13.33° C | 99% | 1004.9 hPa | 1.27 mm | - | 15 W/m² | - |
| 1778068410 | 13.33° C | 99% | 1004.6 hPa | 0 mm | - | 9 W/m² | - |
| 1778068108 | 13.33° C | 99% | 1004.8 hPa | 0 mm | - | 8 W/m² | - |
| 1778067806 | 13.33° C | 99% | 1005 hPa | 1.78 mm | - | 11 W/m² | - |
| 1778067504 | 13.33° C | 99% | 1004.8 hPa | 1.78 mm | - | 15 W/m² | - |
| 1778067201 | 13.33° C | 99% | 1004.8 hPa | 1.78 mm | - | 12 W/m² | - |
| 1778066898 | 12.78° C | 99% | 1004.7 hPa | 1.78 mm | - | 10 W/m² | - |
| 1778066595 | 12.78° C | 99% | 1004.6 hPa | 3.05 mm | - | 9 W/m² | - |
| 1778066292 | 12.78° C | 99% | 1004.7 hPa | 6.1 mm | - | 6 W/m² | - |
| 1778065990 | 12.78° C | 99% | 1004.8 hPa | 6.1 mm | - | 4 W/m² | - |
| 1778065687 | 12.78° C | 99% | 1004.8 hPa | 4.32 mm | - | 6 W/m² | - |
| 1778065384 | 12.78° C | 99% | 1004.7 hPa | 3.05 mm | - | 4 W/m² | - |
| 1778065081 | 12.78° C | 99% | 1004.6 hPa | 1.78 mm | - | 5 W/m² | - |
| 1778064778 | 12.78° C | 99% | 1004.7 hPa | 3.05 mm | - | 5 W/m² | - |
| 1778064475 | 12.78° C | 99% | 1004.6 hPa | 1.27 mm | - | 6 W/m² | - |
| 1778064173 | 12.78° C | 99% | 1004.6 hPa | 1.78 mm | - | 4 W/m² | - |
| 1778063870 | 12.78° C | 99% | 1004.5 hPa | 1.78 mm | - | 2 W/m² | - |
| 1778063568 | 12.78° C | 99% | 1004.7 hPa | 3.05 mm | - | 1 W/m² | - |
| 1778063265 | 12.78° C | 99% | 1004.7 hPa | 4.83 mm | - | 1 W/m² | - |
| 1778062963 | 12.78° C | 99% | 1004.7 hPa | 4.83 mm | - | 0 W/m² | - |
* Rain latest hour (hover to see other rain measurements)
** Current wind speed in m/s (hover to see current wind gust speed)